Lone Elm, Missouri
Current Conditions -  °F | °C
As of 8:55 PM on Friday 21 Nov 2014 (Local Time) from KVER Reporting Station
Overcast Overcast  
Wind Chill: 38°   Ceiling: 1600
Heat Index: 45°   Visibility: 10mi
Dew Point: 34°   Wind: 13mph
Humidity: 67%   Direction: 150°SSE
Pressure: 30.13"   Gusts: NA
Location:  38.7427°N, 92.7977°W
Report Text: KVER 220255Z AUTO 15011KT 10SM OVC016 07/01 A3013 RMK AO2 T00700012
Loading
Personal Weather Stations






























Interactive Weather Map New forecast layout! Learn more

10-Day Weather Forecast

Advertisements
Track Severe Weather on mobile